KPRC/PRC METAR and TAF weather

Enter ICAO airport designator
Station Type Date Time Source
KPRC METAR 2019/12/09 13:53 UTC NOAA

KPRC 091353Z VRB03KT 1/2SM FG BKN004 OVC010 04/04 A2998 RMK AO2 SLP128 T00390039


Station Type Date Time Source
KPRC Decoded METAR 2019/12/09 13:53 UTC NOAA

PRESCOTT LOVE FIELD, AZ, United States (KPRC) 34-39N 112-25W 1524M
Dec 09, 2019 - 08:53 AM EST / 2019.12.09 1353 UTC
Wind: Variable at 3 MPH (3 KT):0
Visibility: 1/2 mile(s):0
Sky conditions: overcast
Weather: fog
Temperature: 39.0 F (3.9 C)
Dew Point: 39.0 F (3.9 C)
Relative Humidity: 100%
Pressure (altimeter): 29.98 in. Hg (1015 hPa)
ob: KPRC 091353Z VRB03KT 1/2SM FG BKN004 OVC010 04/04 A2998 RMK AO2 SLP128 T00390039
cycle: 14

Station Type Date Time Source
KPRC TAF 2019/12/09 14:36 UTC NOAA

TAF
AMD KPRC 091334Z 0914/1012 VRB06KT 1SM BR SCT003 BKN012
TEMPO 0914/0915 1/2SM FG OVC003
FM091600 34010KT P6SM SCT035
FM100000 VRB03KT P6SM SKC

Example: see airport list